createdAt,value
2023-01-29T00:01:34.324Z,101057.31
2023-01-29T00:04:01.920Z,101058.53
2023-01-29T00:06:29.606Z,101065.31
2023-01-29T00:08:59.025Z,101062.84
2023-01-29T00:11:26.599Z,101065.59
2023-01-29T00:13:54.797Z,101059.41
2023-01-29T00:16:22.420Z,101054.81
2023-01-29T00:18:50.138Z,101047.50
2023-01-29T00:21:19.736Z,101052.41
2023-01-29T00:23:47.698Z,101047.84
2023-01-29T00:26:16.739Z,101041.81
2023-01-29T00:28:44.823Z,101036.59
2023-01-29T00:31:15.342Z,101043.00
2023-01-29T00:33:43.170Z,101050.72
2023-01-29T00:36:13.039Z,101048.28
2023-01-29T00:38:40.939Z,101050.69
2023-01-29T00:41:26.804Z,101050.63
2023-01-29T00:44:09.662Z,101046.59
2023-01-29T00:46:37.360Z,101047.50
2023-01-29T00:49:05.641Z,101056.50
2023-01-29T00:51:33.220Z,101061.41
2023-01-29T00:54:01.095Z,101058.25
2023-01-29T00:56:31.018Z,101059.94
2023-01-29T00:58:59.976Z,101059.63
2023-01-29T01:01:41.733Z,101069.38
2023-01-29T01:04:10.726Z,101079.41
2023-01-29T01:06:38.770Z,101072.28
2023-01-29T01:09:24.571Z,101068.81
2023-01-29T01:11:52.560Z,101060.34
2023-01-29T01:14:22.103Z,101068.34
2023-01-29T01:16:50.155Z,101069.38
2023-01-29T01:19:18.174Z,101067.56
2023-01-29T01:21:48.174Z,101071.19
2023-01-29T01:24:16.157Z,101069.94
2023-01-29T01:26:43.857Z,101076.44
2023-01-29T01:29:11.420Z,101075.44
2023-01-29T01:31:40.444Z,101064.41
2023-01-29T01:34:08.149Z,101066.13
2023-01-29T01:36:35.755Z,101069.97
2023-01-29T01:39:03.455Z,101060.00
2023-01-29T01:41:31.843Z,101055.50
2023-01-29T01:44:01.310Z,101062.09
2023-01-29T01:46:30.684Z,101059.19
2023-01-29T01:49:03.839Z,101061.38
2023-01-29T01:51:34.571Z,101062.41
2023-01-29T01:54:06.950Z,101062.41
2023-01-29T01:56:40.913Z,101060.84
2023-01-29T01:59:11.886Z,101056.78
2023-01-29T02:01:42.812Z,101051.03
2023-01-29T02:04:34.926Z,101049.47
2023-01-29T02:07:23.014Z,101050.59
2023-01-29T02:09:54.203Z,101050.66
2023-01-29T02:12:22.758Z,101047.88
2023-01-29T02:14:52.394Z,101041.44
2023-01-29T02:17:21.109Z,101042.47
2023-01-29T02:20:02.160Z,101033.81
2023-01-29T02:22:54.965Z,101040.41
2023-01-29T02:25:48.407Z,101037.25
2023-01-29T02:28:31.664Z,101035.03
2023-01-29T02:31:09.320Z,101035.88
2023-01-29T02:33:49.195Z,101031.25
2023-01-29T02:36:28.798Z,101026.22
2023-01-29T02:39:03.031Z,101022.66
2023-01-29T02:41:36.701Z,101016.25
2023-01-29T02:44:14.108Z,101007.03
2023-01-29T02:46:52.290Z,101014.72
2023-01-29T02:49:26.252Z,101008.66
2023-01-29T02:52:01.551Z,101011.75
2023-01-29T02:54:35.958Z,101006.56
2023-01-29T02:57:10.113Z,101006.72
2023-01-29T02:59:43.377Z,101010.00
2023-01-29T03:02:21.579Z,101011.50
2023-01-29T03:04:53.753Z,101005.44
2023-01-29T03:07:41.703Z,101003.03
2023-01-29T03:10:17.859Z,101007.47
2023-01-29T03:12:50.843Z,101013.19
2023-01-29T03:15:26.730Z,101008.91
2023-01-29T03:17:58.346Z,101012.88
2023-01-29T03:20:32.048Z,101022.06
2023-01-29T03:23:05.746Z,101024.84
2023-01-29T03:25:54.230Z,101025.13
2023-01-29T03:28:40.923Z,101035.63
2023-01-29T03:31:30.474Z,101037.75
2023-01-29T03:34:04.197Z,101035.56
2023-01-29T03:36:39.727Z,101043.88
2023-01-29T03:39:08.634Z,101047.50
2023-01-29T03:41:41.966Z,101046.69
2023-01-29T03:44:15.535Z,101040.53
2023-01-29T03:46:53.307Z,101041.09
2023-01-29T03:49:24.991Z,101037.38
2023-01-29T03:51:59.214Z,101038.16
2023-01-29T03:54:34.036Z,101032.91
2023-01-29T03:57:11.472Z,101048.69
2023-01-29T03:59:43.616Z,101049.59
2023-01-29T04:02:19.302Z,101060.19
2023-01-29T04:04:53.134Z,101062.44
2023-01-29T04:07:24.434Z,101066.13
2023-01-29T04:09:57.078Z,101069.53
2023-01-29T04:12:30.579Z,101067.13
2023-01-29T04:15:02.475Z,101064.34
2023-01-29T04:17:38.369Z,101051.41
2023-01-29T04:20:07.221Z,101049.06
2023-01-29T04:22:37.022Z,101050.66
2023-01-29T04:25:08.475Z,101043.81
2023-01-29T04:27:44.809Z,101039.13
2023-01-29T04:30:24.906Z,101037.09
2023-01-29T04:33:04.234Z,101038.38
2023-01-29T04:35:38.126Z,101046.47
2023-01-29T04:38:13.699Z,101053.47
2023-01-29T04:40:51.752Z,101047.63
2023-01-29T04:43:27.656Z,101049.09
2023-01-29T04:46:10.211Z,101034.84
2023-01-29T04:48:52.724Z,101020.72
2023-01-29T04:51:26.054Z,101004.00
2023-01-29T04:54:02.527Z,100994.63
2023-01-29T04:56:36.462Z,100991.88
2023-01-29T04:59:08.558Z,101008.13
2023-01-29T05:01:36.879Z,101016.09
2023-01-29T05:04:11.545Z,101011.13
2023-01-29T05:06:41.111Z,101001.50
2023-01-29T05:09:10.291Z,100997.75
2023-01-29T05:11:38.089Z,101002.31
2023-01-29T05:14:09.959Z,101005.31
2023-01-29T05:16:43.604Z,101019.06
2023-01-29T05:19:14.732Z,101020.56
2023-01-29T05:21:44.733Z,101019.16
2023-01-29T05:24:15.370Z,101026.06
2023-01-29T05:27:01.919Z,101023.56
2023-01-29T05:29:29.870Z,101033.06
2023-01-29T05:31:57.486Z,101037.84
2023-01-29T05:34:26.895Z,101039.66
2023-01-29T05:36:54.560Z,101037.66
2023-01-29T05:39:22.477Z,101031.34
2023-01-29T05:41:50.043Z,101033.41
2023-01-29T05:44:17.825Z,101036.91
2023-01-29T05:46:46.056Z,101039.16
2023-01-29T05:49:14.089Z,101035.69
2023-01-29T05:51:43.046Z,101027.44
2023-01-29T05:54:12.438Z,101028.81
2023-01-29T05:56:40.189Z,101031.94
2023-01-29T05:59:08.340Z,101022.75
2023-01-29T06:01:36.074Z,101019.38
2023-01-29T06:04:03.908Z,101017.31
2023-01-29T06:06:31.644Z,101011.09
2023-01-29T06:09:00.602Z,101009.94
2023-01-29T06:11:28.427Z,101020.06
2023-01-29T06:13:56.038Z,101013.16
2023-01-29T06:16:23.678Z,101031.19
2023-01-29T06:18:51.232Z,101031.75
2023-01-29T06:21:20.151Z,101038.03
2023-01-29T06:23:47.888Z,101047.09
2023-01-29T06:26:17.048Z,101044.28
2023-01-29T06:28:45.873Z,101030.78
2023-01-29T06:31:33.085Z,101028.16
2023-01-29T06:34:01.162Z,101025.31
2023-01-29T06:36:28.800Z,101026.56
2023-01-29T06:38:56.422Z,101028.28
2023-01-29T06:41:25.558Z,101024.63
2023-01-29T06:43:54.171Z,101027.69
2023-01-29T06:46:21.755Z,101021.06
2023-01-29T06:48:49.386Z,101018.28
2023-01-29T06:51:17.041Z,101016.47
2023-01-29T06:53:46.283Z,101014.00
2023-01-29T06:56:14.295Z,101018.34
2023-01-29T06:58:43.621Z,101032.16
2023-01-29T07:01:29.007Z,101029.38
2023-01-29T07:04:00.912Z,101014.00
2023-01-29T07:06:29.403Z,101026.72
2023-01-29T07:08:57.126Z,101033.91
2023-01-29T07:11:24.780Z,101036.44
2023-01-29T07:13:53.679Z,101035.69
2023-01-29T07:16:21.360Z,101036.84
2023-01-29T07:18:49.001Z,101035.59
2023-01-29T07:21:16.629Z,101032.88
2023-01-29T07:23:44.697Z,101037.50
2023-01-29T07:26:12.853Z,101034.06
2023-01-29T07:28:41.016Z,101030.88
2023-01-29T07:31:14.217Z,101027.44
2023-01-29T07:33:43.604Z,101028.34
2023-01-29T07:36:12.270Z,101038.13
2023-01-29T07:38:39.940Z,101029.25
2023-01-29T07:41:07.890Z,101038.25
2023-01-29T07:43:35.506Z,101036.72
2023-01-29T07:46:04.270Z,101040.38
2023-01-29T07:48:33.472Z,101045.63
2023-01-29T07:51:01.241Z,101051.34
2023-01-29T07:53:29.451Z,101058.03
2023-01-29T07:55:57.547Z,101053.88
2023-01-29T07:58:25.393Z,101060.22
2023-01-29T08:00:53.026Z,101069.66
2023-01-29T08:03:21.603Z,101059.53
2023-01-29T08:05:50.670Z,101059.59
2023-01-29T08:08:19.269Z,101065.16
2023-01-29T08:10:46.895Z,101067.56
2023-01-29T08:13:14.460Z,101068.00
2023-01-29T08:15:43.999Z,101072.28
2023-01-29T08:18:11.616Z,101064.66
2023-01-29T08:20:39.290Z,101069.31
2023-01-29T08:23:11.324Z,101066.69
2023-01-29T08:25:38.882Z,101084.44
2023-01-29T08:28:06.551Z,101080.75
2023-01-29T08:30:35.534Z,101073.69
2023-01-29T08:33:05.365Z,101069.25
2023-01-29T08:35:32.943Z,101062.59
2023-01-29T08:38:03.224Z,101062.53
2023-01-29T08:40:34.601Z,101066.91
2023-01-29T08:43:04.147Z,101073.13
2023-01-29T08:45:35.142Z,101078.78
2023-01-29T08:48:03.369Z,101080.69
2023-01-29T08:50:31.813Z,101096.44
2023-01-29T08:53:00.335Z,101101.94
2023-01-29T08:55:28.543Z,101094.78
2023-01-29T08:57:58.158Z,101089.69
2023-01-29T09:00:26.020Z,101074.81
2023-01-29T09:02:53.693Z,101055.88
2023-01-29T09:05:21.287Z,101044.47
2023-01-29T09:07:48.907Z,101018.63
2023-01-29T09:10:17.235Z,101012.56
2023-01-29T09:12:44.890Z,101008.50
2023-01-29T09:15:14.068Z,101009.78
2023-01-29T09:17:42.938Z,101014.88
2023-01-29T09:20:11.864Z,101018.59
2023-01-29T09:22:39.427Z,101015.75
2023-01-29T09:25:08.268Z,101023.28
2023-01-29T09:27:36.122Z,101022.19
2023-01-29T09:30:04.691Z,101026.63
2023-01-29T09:32:52.660Z,101038.22
2023-01-29T09:35:22.320Z,101044.88
2023-01-29T09:37:49.992Z,101047.78
2023-01-29T09:40:25.601Z,101049.97
2023-01-29T09:42:59.288Z,101039.00
2023-01-29T09:45:28.580Z,101046.25
2023-01-29T09:48:01.233Z,101047.06
2023-01-29T09:50:33.302Z,101052.38
2023-01-29T09:53:06.172Z,101059.66
2023-01-29T09:55:40.292Z,101064.09
2023-01-29T09:58:14.887Z,101059.13
2023-01-29T10:00:52.720Z,101074.22
2023-01-29T10:03:40.610Z,101077.25
2023-01-29T10:06:22.128Z,101084.97
2023-01-29T10:09:28.475Z,101085.72
2023-01-29T10:12:07.291Z,101084.03
2023-01-29T10:14:44.548Z,101087.34
2023-01-29T10:17:31.291Z,101088.59
2023-01-29T10:20:19.251Z,101086.59
2023-01-29T10:23:04.237Z,101073.91
2023-01-29T10:25:38.003Z,101065.22
2023-01-29T10:28:17.893Z,101070.41
2023-01-29T10:30:50.089Z,101075.31
2023-01-29T10:33:23.051Z,101071.66
2023-01-29T10:35:56.899Z,101065.50
2023-01-29T10:38:32.363Z,101058.53
2023-01-29T10:41:12.937Z,101045.47
2023-01-29T10:43:51.586Z,101037.16
2023-01-29T10:46:27.991Z,101036.28
2023-01-29T10:49:08.007Z,101046.41
2023-01-29T10:51:52.785Z,101039.50
2023-01-29T10:54:42.738Z,101040.59
2023-01-29T10:57:19.097Z,101032.84
2023-01-29T11:00:01.072Z,101035.19
2023-01-29T11:02:28.933Z,101022.34
2023-01-29T11:04:56.673Z,101020.81
2023-01-29T11:07:27.906Z,101015.63
2023-01-29T11:10:01.842Z,100999.25
2023-01-29T11:12:33.443Z,100994.22
2023-01-29T11:15:06.474Z,100996.34
2023-01-29T11:17:34.361Z,100984.31
2023-01-29T11:20:02.233Z,100982.78
2023-01-29T11:22:31.633Z,100981.16
2023-01-29T11:25:10.949Z,100979.94
2023-01-29T11:27:44.311Z,100970.66
2023-01-29T11:30:19.569Z,100965.00
2023-01-29T11:32:52.449Z,100964.53
2023-01-29T11:35:25.567Z,100950.03
2023-01-29T11:38:08.621Z,100947.03
2023-01-29T11:40:39.682Z,100948.00
2023-01-29T11:43:22.130Z,100938.50
2023-01-29T11:45:52.691Z,100931.81
2023-01-29T11:48:22.461Z,100904.88
2023-01-29T11:50:54.660Z,100902.00
2023-01-29T11:53:33.674Z,100894.81
2023-01-29T11:56:01.797Z,100896.44
2023-01-29T11:58:32.011Z,100887.63
2023-01-29T12:01:01.206Z,100878.22
2023-01-29T12:03:36.414Z,100880.03
2023-01-29T12:06:08.050Z,100882.00
2023-01-29T12:08:40.481Z,100882.16
2023-01-29T12:11:09.743Z,100871.44
2023-01-29T12:13:38.966Z,100877.81
2023-01-29T12:16:16.745Z,100875.47
2023-01-29T12:18:49.972Z,100875.38
2023-01-29T12:21:24.763Z,100869.22
2023-01-29T12:23:58.878Z,100858.69
2023-01-29T12:26:32.586Z,100852.19
2023-01-29T12:29:16.448Z,100843.38
2023-01-29T12:31:50.681Z,100837.13
2023-01-29T12:34:24.530Z,100835.69
2023-01-29T12:36:57.122Z,100837.84
2023-01-29T12:39:26.456Z,100833.63
2023-01-29T12:41:58.977Z,100834.09
2023-01-29T12:44:34.558Z,100838.91
2023-01-29T12:47:08.007Z,100836.53
2023-01-29T12:49:40.590Z,100823.38
2023-01-29T12:52:13.378Z,100812.75
2023-01-29T12:54:47.254Z,100822.78
2023-01-29T12:57:21.893Z,100819.78
2023-01-29T12:59:56.140Z,100801.19
2023-01-29T13:02:33.095Z,100804.66
2023-01-29T13:05:04.999Z,100808.06
2023-01-29T13:07:37.179Z,100803.75
2023-01-29T13:10:13.758Z,100810.25
2023-01-29T13:12:49.324Z,100808.50
2023-01-29T13:15:25.324Z,100809.44
2023-01-29T13:17:57.622Z,100800.44
2023-01-29T13:20:30.339Z,100800.00
2023-01-29T13:23:03.900Z,100794.25
2023-01-29T13:25:32.811Z,100792.22
2023-01-29T13:28:01.439Z,100788.09
2023-01-29T13:30:31.290Z,100783.88
2023-01-29T13:33:10.296Z,100781.41
2023-01-29T13:35:42.387Z,100775.03
2023-01-29T13:38:25.878Z,100770.38
2023-01-29T13:40:58.108Z,100775.28
2023-01-29T13:43:25.881Z,100772.75
2023-01-29T13:45:55.412Z,100772.25
2023-01-29T13:48:27.540Z,100782.13
2023-01-29T13:50:57.241Z,100779.72
2023-01-29T13:53:28.062Z,100781.53
2023-01-29T13:56:30.226Z,100780.50
2023-01-29T13:58:58.419Z,100777.78
2023-01-29T14:02:03.825Z,100769.38
2023-01-29T14:04:34.024Z,100773.06
2023-01-29T14:07:03.765Z,100758.19
2023-01-29T14:09:50.461Z,100741.91
2023-01-29T14:12:46.009Z,100736.63
2023-01-29T14:15:29.439Z,100745.75
2023-01-29T14:18:16.769Z,100746.94
2023-01-29T14:21:00.409Z,100739.28
2023-01-29T14:23:41.963Z,100741.59
2023-01-29T14:26:30.362Z,100739.84
2023-01-29T14:29:08.690Z,100738.31
2023-01-29T14:31:45.573Z,100738.59
2023-01-29T14:34:19.420Z,100741.25
2023-01-29T14:36:50.390Z,100738.31
2023-01-29T14:39:23.539Z,100742.06
2023-01-29T14:41:53.266Z,100734.16
2023-01-29T14:44:57.661Z,100742.09
2023-01-29T14:48:09.905Z,100732.31
2023-01-29T14:50:51.299Z,100736.44
2023-01-29T14:53:26.209Z,100735.34
2023-01-29T14:55:59.149Z,100739.53
2023-01-29T14:58:35.949Z,100731.03
2023-01-29T15:01:08.524Z,100730.19
2023-01-29T15:03:42.708Z,100723.97
2023-01-29T15:06:16.430Z,100728.53
2023-01-29T15:08:49.533Z,100733.22
2023-01-29T15:11:35.525Z,100730.38
2023-01-29T15:14:27.143Z,100726.13
2023-01-29T15:17:06.925Z,100733.25
2023-01-29T15:19:44.725Z,100729.50
2023-01-29T15:22:14.007Z,100738.03
2023-01-29T15:24:43.637Z,100737.28
2023-01-29T15:27:15.672Z,100739.91
2023-01-29T15:29:45.688Z,100738.09
2023-01-29T15:32:29.717Z,100739.69
2023-01-29T15:34:58.247Z,100739.50
2023-01-29T15:37:28.104Z,100749.94
2023-01-29T15:39:56.483Z,100747.78
2023-01-29T15:42:25.792Z,100752.78
2023-01-29T15:44:55.398Z,100753.38
2023-01-29T15:47:28.529Z,100750.91
2023-01-29T15:49:57.245Z,100746.22
2023-01-29T15:52:28.416Z,100743.91
2023-01-29T15:54:57.532Z,100740.75
2023-01-29T15:57:29.242Z,100729.28
2023-01-29T15:59:59.512Z,100732.22
2023-01-29T16:02:39.507Z,100730.22
2023-01-29T16:05:12.688Z,100723.91
2023-01-29T16:07:41.517Z,100725.88
2023-01-29T16:10:17.611Z,100714.56
2023-01-29T16:12:47.291Z,100710.53
2023-01-29T16:15:24.562Z,100708.63
2023-01-29T16:17:54.115Z,100708.66
2023-01-29T16:20:33.650Z,100703.66
2023-01-29T16:23:01.756Z,100703.66
2023-01-29T16:25:31.159Z,100694.44
2023-01-29T16:27:59.416Z,100688.22
2023-01-29T16:30:29.018Z,100692.31
2023-01-29T16:33:04.827Z,100681.81
2023-01-29T16:35:32.771Z,100680.16
2023-01-29T16:38:04.314Z,100675.59
2023-01-29T16:40:34.038Z,100668.03
2023-01-29T16:43:42.476Z,100665.88
2023-01-29T16:46:20.492Z,100667.19
2023-01-29T16:48:49.648Z,100669.38
2023-01-29T16:51:24.582Z,100663.09
2023-01-29T16:54:00.717Z,100674.31
2023-01-29T16:56:31.927Z,100674.03
2023-01-29T16:59:00.468Z,100665.28
2023-01-29T17:01:30.260Z,100673.75
2023-01-29T17:04:07.522Z,100663.09
2023-01-29T17:06:35.961Z,100673.19
2023-01-29T17:09:04.872Z,100675.69
2023-01-29T17:11:37.296Z,100677.06
2023-01-29T17:14:07.643Z,100690.88
2023-01-29T17:16:37.644Z,100687.56
2023-01-29T17:19:18.550Z,100686.47
2023-01-29T17:21:46.504Z,100677.44
2023-01-29T17:24:14.292Z,100676.63
2023-01-29T17:26:42.148Z,100674.03
2023-01-29T17:29:15.405Z,100678.69
2023-01-29T17:31:43.141Z,100678.91
2023-01-29T17:34:14.966Z,100683.63
2023-01-29T17:36:43.065Z,100700.53
2023-01-29T17:39:17.451Z,100704.91
2023-01-29T17:41:48.133Z,100704.69
2023-01-29T17:44:16.182Z,100709.56
2023-01-29T17:46:43.910Z,100722.63
2023-01-29T17:49:22.525Z,100725.75
2023-01-29T17:51:50.611Z,100727.88
2023-01-29T17:54:18.414Z,100734.41
2023-01-29T17:56:46.059Z,100732.38
2023-01-29T17:59:15.598Z,100740.97
2023-01-29T18:01:43.489Z,100742.50
2023-01-29T18:04:11.281Z,100743.81
2023-01-29T18:06:42.187Z,100739.28
2023-01-29T18:09:13.305Z,100734.03
2023-01-29T18:11:41.025Z,100735.25
2023-01-29T18:14:14.291Z,100730.88
2023-01-29T18:16:43.592Z,100735.25
2023-01-29T18:19:17.597Z,100729.38
2023-01-29T18:21:46.600Z,100734.94
2023-01-29T18:24:14.499Z,100733.16
2023-01-29T18:26:42.150Z,100729.88
2023-01-29T18:29:09.904Z,100716.69
2023-01-29T18:31:37.534Z,100718.59
2023-01-29T18:34:05.236Z,100718.41
2023-01-29T18:36:32.856Z,100721.59
2023-01-29T18:39:01.870Z,100712.78
2023-01-29T18:41:29.434Z,100711.16
2023-01-29T18:43:57.031Z,100705.88
2023-01-29T18:46:24.932Z,100711.09
2023-01-29T18:48:52.541Z,100701.13
2023-01-29T18:51:20.145Z,100702.19
2023-01-29T18:53:50.952Z,100702.81
2023-01-29T18:56:21.580Z,100692.81
2023-01-29T18:58:52.412Z,100706.34
2023-01-29T19:01:24.461Z,100699.09
2023-01-29T19:03:52.276Z,100704.00
2023-01-29T19:06:19.962Z,100694.03
2023-01-29T19:08:47.949Z,100699.75
2023-01-29T19:11:15.766Z,100697.56
2023-01-29T19:13:45.314Z,100697.22
2023-01-29T19:16:14.236Z,100695.22
2023-01-29T19:18:41.969Z,100700.09
2023-01-29T19:21:11.056Z,100696.31
2023-01-29T19:23:38.874Z,100704.81
2023-01-29T19:26:07.118Z,100696.72
2023-01-29T19:28:34.977Z,100690.41
2023-01-29T19:31:04.566Z,100683.81
2023-01-29T19:33:32.279Z,100691.25
2023-01-29T19:36:00.726Z,100683.47
2023-01-29T19:38:28.955Z,100675.44
2023-01-29T19:40:56.722Z,100672.91
2023-01-29T19:43:24.467Z,100676.41
2023-01-29T19:45:58.343Z,100672.97
2023-01-29T19:48:27.929Z,100674.38
2023-01-29T19:50:56.900Z,100680.09
2023-01-29T19:53:25.188Z,100681.09
2023-01-29T19:56:00.729Z,100677.50
2023-01-29T19:58:29.432Z,100674.56
2023-01-29T20:00:58.204Z,100676.75
2023-01-29T20:03:28.977Z,100669.59
2023-01-29T20:05:57.185Z,100664.34
2023-01-29T20:08:25.012Z,100671.84
2023-01-29T20:10:52.806Z,100670.19
2023-01-29T20:13:20.712Z,100669.63
2023-01-29T20:15:49.738Z,100673.56
2023-01-29T20:18:18.097Z,100670.03
2023-01-29T20:20:49.411Z,100669.34
2023-01-29T20:23:31.795Z,100669.91
2023-01-29T20:26:05.360Z,100667.69
2023-01-29T20:28:33.045Z,100657.84
2023-01-29T20:31:00.927Z,100663.78
2023-01-29T20:33:29.027Z,100656.38
2023-01-29T20:35:59.988Z,100667.63
2023-01-29T20:38:30.267Z,100651.78
2023-01-29T20:41:04.411Z,100652.53
2023-01-29T20:43:32.271Z,100658.25
2023-01-29T20:46:00.910Z,100659.50
2023-01-29T20:48:28.838Z,100666.38
2023-01-29T20:50:58.059Z,100667.81
2023-01-29T20:53:25.899Z,100672.56
2023-01-29T20:55:53.750Z,100674.47
2023-01-29T20:58:22.236Z,100675.56
2023-01-29T21:00:49.891Z,100673.53
2023-01-29T21:03:17.698Z,100664.22
2023-01-29T21:05:45.577Z,100676.06
2023-01-29T21:08:14.672Z,100663.66
2023-01-29T21:10:43.365Z,100668.44
2023-01-29T21:13:11.252Z,100659.41
2023-01-29T21:15:39.504Z,100655.66
2023-01-29T21:18:07.550Z,100668.19
2023-01-29T21:20:35.236Z,100653.91
2023-01-29T21:23:06.592Z,100655.91
2023-01-29T21:25:36.050Z,100653.31
2023-01-29T21:28:04.345Z,100641.56
2023-01-29T21:30:32.209Z,100641.91
2023-01-29T21:32:59.885Z,100638.13
2023-01-29T21:35:27.545Z,100625.84
2023-01-29T21:37:55.159Z,100630.69
2023-01-29T21:40:25.010Z,100621.28
2023-01-29T21:43:11.393Z,100609.25
2023-01-29T21:45:39.767Z,100610.88
2023-01-29T21:48:07.737Z,100603.22
2023-01-29T21:50:35.382Z,100608.28
2023-01-29T21:53:03.185Z,100606.00
2023-01-29T21:55:31.063Z,100596.09
2023-01-29T21:58:00.233Z,100588.28
2023-01-29T22:00:28.280Z,100584.78
2023-01-29T22:02:56.033Z,100587.56
2023-01-29T22:05:24.048Z,100582.16
2023-01-29T22:07:51.645Z,100581.19
2023-01-29T22:10:20.443Z,100588.63
2023-01-29T22:12:49.048Z,100584.34
2023-01-29T22:15:18.128Z,100591.56
2023-01-29T22:17:45.727Z,100585.19
2023-01-29T22:20:15.476Z,100587.09
2023-01-29T22:22:43.432Z,100588.28
2023-01-29T22:25:11.049Z,100574.66
2023-01-29T22:27:39.009Z,100572.16
2023-01-29T22:30:07.882Z,100558.84
2023-01-29T22:32:36.846Z,100561.34
2023-01-29T22:35:04.684Z,100566.13
2023-01-29T22:37:32.222Z,100565.75
2023-01-29T22:39:59.751Z,100566.25
2023-01-29T22:42:27.831Z,100571.50
2023-01-29T22:44:55.390Z,100562.38
2023-01-29T22:47:22.920Z,100555.16
2023-01-29T22:49:52.347Z,100550.19
2023-01-29T22:52:21.904Z,100554.31
2023-01-29T22:54:51.253Z,100545.91
2023-01-29T22:57:19.280Z,100544.53
2023-01-29T22:59:47.176Z,100542.25
2023-01-29T23:02:14.755Z,100524.22
2023-01-29T23:04:42.379Z,100520.84
2023-01-29T23:07:11.380Z,100513.38
2023-01-29T23:09:38.966Z,100512.94
2023-01-29T23:12:07.782Z,100502.44
2023-01-29T23:14:35.539Z,100504.88
2023-01-29T23:17:03.166Z,100502.00
2023-01-29T23:19:30.948Z,100504.91
2023-01-29T23:21:58.573Z,100501.81
2023-01-29T23:24:27.469Z,100488.34
2023-01-29T23:27:12.906Z,100483.38
2023-01-29T23:29:40.550Z,100487.59
2023-01-29T23:32:08.214Z,100484.88
2023-01-29T23:35:00.671Z,100480.91
2023-01-29T23:37:28.719Z,100464.56
2023-01-29T23:39:57.595Z,100463.66
2023-01-29T23:42:25.164Z,100463.38
2023-01-29T23:44:52.789Z,100451.16
2023-01-29T23:47:20.331Z,100447.16
2023-01-29T23:49:48.739Z,100458.34
2023-01-29T23:52:16.367Z,100455.72
2023-01-29T23:54:44.033Z,100475.13
2023-01-29T23:57:12.967Z,100475.69
2023-01-29T23:59:40.632Z,100474.88
